Denver, Colorado
Traffic Map
Current Weather Conditions
Denver, Colorado
Scattered Clouds
Scattered Clouds
-10°
Feels Like: -16°
Wind Chill: -16° Ceiling: Unl
Heat Index: -10° Visibility: 10mi
Dew Point: -15° Wind: 8mph
Humidity: 67% Direction: 100° (E)
Pressure: 30.11in Gusts: 0mph
Raw Report DataKBKF 041958Z 10007KT 10SM FEW030 SCT110 SCT220 M10/M15 A3011 RMK AO2A SLP259 T11001150
Traffic Incident Summary
Active as of:
Severity:
Category:
InformationThere was an issue retrieving the traffic information for this location. Please try a different location or try again shortly.
Advertisements
Track Severe Weather on mobile